createdAt,value
2023-02-11T00:04:44.598Z,99584.25
2023-02-11T00:09:45.813Z,99579.59
2023-02-11T00:14:55.993Z,99563.72
2023-02-11T00:19:57.360Z,99562.88
2023-02-11T00:24:58.600Z,99567.59
2023-02-11T00:30:02.256Z,99565.31
2023-02-11T00:35:03.534Z,99567.03
2023-02-11T00:40:06.741Z,99567.50
2023-02-11T00:45:09.757Z,99563.78
2023-02-11T00:50:11.143Z,99553.41
2023-02-11T00:55:12.391Z,99558.59
2023-02-11T01:00:13.612Z,99569.69
2023-02-11T01:05:14.967Z,99565.28
2023-02-11T01:10:16.238Z,99564.00
2023-02-11T01:15:17.506Z,99567.81
2023-02-11T01:20:18.844Z,99567.50
2023-02-11T01:25:20.058Z,99556.38
2023-02-11T01:30:21.261Z,99541.34
2023-02-11T01:35:22.481Z,99529.19
2023-02-11T01:40:23.718Z,99540.78
2023-02-11T01:45:24.947Z,99531.41
2023-02-11T01:50:26.183Z,99515.38
2023-02-11T01:55:46.309Z,99508.81
2023-02-11T02:00:49.092Z,99498.00
2023-02-11T02:05:50.747Z,99496.06
2023-02-11T02:10:54.710Z,99490.78
2023-02-11T02:15:56.017Z,99479.16
2023-02-11T02:20:57.293Z,99485.06
2023-02-11T02:25:58.568Z,99494.59
2023-02-11T02:30:59.886Z,99495.44
2023-02-11T02:36:01.185Z,99499.69
2023-02-11T02:41:02.405Z,99501.56
2023-02-11T02:46:03.672Z,99509.59
2023-02-11T02:51:04.937Z,99511.28
2023-02-11T02:56:06.211Z,99498.22
2023-02-11T03:01:09.556Z,99489.72
2023-02-11T03:06:10.910Z,99494.16
2023-02-11T03:11:12.214Z,99497.09
2023-02-11T03:16:13.639Z,99492.38
2023-02-11T03:21:14.949Z,99469.72
2023-02-11T03:26:16.194Z,99462.47
2023-02-11T03:31:17.498Z,99469.53
2023-02-11T03:36:18.843Z,99483.88
2023-02-11T03:41:20.053Z,99485.28
2023-02-11T03:46:21.402Z,99488.78
2023-02-11T03:51:22.776Z,99483.69
2023-02-11T03:56:24.022Z,99491.78
2023-02-11T04:01:25.240Z,99490.88
2023-02-11T04:06:26.554Z,99495.19
2023-02-11T04:11:27.853Z,99487.75
2023-02-11T04:16:30.888Z,99492.00
2023-02-11T04:21:32.189Z,99487.34
2023-02-11T04:26:33.399Z,99490.31
2023-02-11T04:31:34.623Z,99468.09
2023-02-11T04:36:35.912Z,99475.72
2023-02-11T04:41:37.271Z,99464.72
2023-02-11T04:46:38.538Z,99470.63
2023-02-11T04:51:39.772Z,99461.47
2023-02-11T04:56:40.989Z,99457.75
2023-02-11T05:01:42.263Z,99456.06
2023-02-11T05:06:43.511Z,99456.16
2023-02-11T05:11:44.782Z,99459.31
2023-02-11T05:16:46.049Z,99464.44
2023-02-11T05:22:01.441Z,99461.03
2023-02-11T05:27:03.658Z,99466.59
2023-02-11T05:32:04.984Z,99462.31
2023-02-11T05:37:06.219Z,99457.28
2023-02-11T05:42:07.424Z,99433.06
2023-02-11T05:47:09.017Z,99422.34
2023-02-11T05:52:10.206Z,99425.69
2023-02-11T05:57:11.414Z,99419.28
2023-02-11T06:02:12.715Z,99424.72
2023-02-11T06:07:14.000Z,99433.41
2023-02-11T06:12:15.198Z,99429.28
2023-02-11T06:17:16.439Z,99431.19
2023-02-11T06:22:17.703Z,99405.22
2023-02-11T06:27:19.077Z,99400.72
2023-02-11T06:32:39.283Z,99405.75
2023-02-11T06:37:41.647Z,99422.19
2023-02-11T06:42:42.966Z,99408.06
2023-02-11T06:47:44.212Z,99399.22
2023-02-11T06:52:45.413Z,99411.56
2023-02-11T06:57:46.624Z,99440.56
2023-02-11T07:02:47.920Z,99427.53
2023-02-11T07:07:49.332Z,99415.13
2023-02-11T07:12:50.586Z,99432.28
2023-02-11T07:17:51.820Z,99415.00
2023-02-11T07:22:53.138Z,99385.41
2023-02-11T07:27:54.411Z,99421.66
2023-02-11T07:32:55.675Z,99411.47
2023-02-11T07:38:02.992Z,99419.78
2023-02-11T07:43:04.228Z,99416.63
2023-02-11T07:48:05.571Z,99434.91
2023-02-11T07:53:06.950Z,99441.16
2023-02-11T07:58:08.210Z,99440.66
2023-02-11T08:03:09.466Z,99439.56
2023-02-11T08:08:10.672Z,99433.13
2023-02-11T08:13:15.010Z,99429.91
2023-02-11T08:18:16.261Z,99433.78
2023-02-11T08:23:17.518Z,99425.16
2023-02-11T08:28:18.930Z,99408.72
2023-02-11T08:33:20.187Z,99412.84
2023-02-11T08:38:21.660Z,99406.47
2023-02-11T08:43:23.575Z,99428.94
2023-02-11T08:48:24.827Z,99438.94
2023-02-11T08:53:26.231Z,99445.47
2023-02-11T08:58:27.457Z,99425.91
2023-02-11T09:03:29.696Z,99416.09
2023-02-11T09:08:30.909Z,99407.00
2023-02-11T09:13:32.200Z,99407.03
2023-02-11T09:18:33.636Z,99403.75
2023-02-11T09:23:35.065Z,99406.91
2023-02-11T09:28:36.388Z,99378.69
2023-02-11T09:33:37.737Z,99405.69
2023-02-11T09:38:38.996Z,99396.25
2023-02-11T09:43:40.213Z,99387.66
2023-02-11T09:48:41.843Z,99394.63
2023-02-11T09:53:43.049Z,99387.09
2023-02-11T09:58:44.318Z,99391.47
2023-02-11T10:03:45.630Z,99394.47
2023-02-11T10:08:46.872Z,99395.66
2023-02-11T10:13:48.140Z,99385.34
2023-02-11T10:18:49.367Z,99394.88
2023-02-11T10:23:51.647Z,99383.97
2023-02-11T10:28:53.005Z,99365.59
2023-02-11T10:33:54.722Z,99358.50
2023-02-11T10:38:55.992Z,99352.72
2023-02-11T10:43:57.265Z,99339.88
2023-02-11T10:48:58.504Z,99339.03
2023-02-11T10:53:59.743Z,99327.97
2023-02-11T10:59:01.233Z,99331.63
2023-02-11T11:04:02.740Z,99323.91
2023-02-11T11:09:04.676Z,99312.25
2023-02-11T11:14:06.028Z,99308.59
2023-02-11T11:19:07.614Z,99302.78
2023-02-11T11:24:09.655Z,99283.16
2023-02-11T11:29:11.693Z,99291.75
2023-02-11T11:34:12.937Z,99299.56
2023-02-11T11:39:14.211Z,99309.22
2023-02-11T11:44:15.524Z,99279.31
2023-02-11T11:49:16.953Z,99276.78
2023-02-11T11:54:20.604Z,99275.13
2023-02-11T11:59:21.852Z,99252.00
2023-02-11T12:04:23.047Z,99256.31
2023-02-11T12:09:24.331Z,99253.78
2023-02-11T12:14:25.878Z,99255.53
2023-02-11T12:19:27.756Z,99233.19
2023-02-11T12:24:29.672Z,99223.66
2023-02-11T12:29:30.932Z,99234.84
2023-02-11T12:34:32.297Z,99209.63
2023-02-11T12:39:36.747Z,99189.41
2023-02-11T12:44:38.224Z,99179.03
2023-02-11T12:49:39.489Z,99163.72
2023-02-11T12:54:40.797Z,99160.22
2023-02-11T12:59:42.218Z,99163.88
2023-02-11T13:04:43.641Z,99148.22
2023-02-11T13:09:45.018Z,99149.28
2023-02-11T13:14:46.300Z,99147.66
2023-02-11T13:19:47.559Z,99154.81
2023-02-11T13:24:49.361Z,99155.75
2023-02-11T13:29:50.874Z,99165.06
2023-02-11T13:34:52.106Z,99171.06
2023-02-11T13:39:53.350Z,99172.00
2023-02-11T13:44:54.605Z,99176.34
2023-02-11T13:49:55.983Z,99176.47
2023-02-11T13:54:57.291Z,99184.22
2023-02-11T13:59:58.577Z,99182.47
2023-02-11T14:05:18.616Z,99184.22
2023-02-11T14:10:19.840Z,99188.44
2023-02-11T14:15:21.130Z,99186.66
2023-02-11T14:20:22.394Z,99168.72
2023-02-11T14:25:23.734Z,99169.44
2023-02-11T14:30:25.233Z,99168.56
2023-02-11T14:35:26.435Z,99167.81
2023-02-11T14:40:27.693Z,99171.28
2023-02-11T14:45:29.028Z,99169.53
2023-02-11T14:50:30.283Z,99177.16
2023-02-11T14:55:31.584Z,99181.41
2023-02-11T15:00:32.867Z,99172.00
2023-02-11T15:05:34.139Z,99171.19
2023-02-11T15:10:35.417Z,99182.38
2023-02-11T15:15:37.756Z,99171.28
2023-02-11T15:20:39.072Z,99158.44
2023-02-11T15:25:40.325Z,99173.84
2023-02-11T15:30:41.622Z,99181.66
2023-02-11T15:35:42.901Z,99183.38
2023-02-11T15:40:44.551Z,99192.78
2023-02-11T15:45:46.042Z,99190.22
2023-02-11T15:50:47.277Z,99202.25
2023-02-11T15:55:49.059Z,99194.53
2023-02-11T16:00:50.748Z,99205.69
2023-02-11T16:05:52.271Z,99218.59
2023-02-11T16:10:53.747Z,99212.53
2023-02-11T16:15:55.145Z,99218.47
2023-02-11T16:20:56.572Z,99230.59
2023-02-11T16:25:58.296Z,99241.75
2023-02-11T16:31:02.402Z,99247.81
2023-02-11T16:36:03.824Z,99253.81
2023-02-11T16:41:05.073Z,99256.34
2023-02-11T16:46:06.366Z,99261.50
2023-02-11T16:51:09.232Z,99268.31
2023-02-11T16:56:10.511Z,99265.75
2023-02-11T17:01:13.972Z,99282.72
2023-02-11T17:06:15.566Z,99277.38
2023-02-11T17:11:17.904Z,99296.66
2023-02-11T17:16:19.376Z,99312.38
2023-02-11T17:21:20.707Z,99315.66
2023-02-11T17:26:21.987Z,99340.63
2023-02-11T17:31:23.377Z,99344.25
2023-02-11T17:36:24.627Z,99337.97
2023-02-11T17:41:25.849Z,99345.13
2023-02-11T17:46:28.570Z,99353.00
2023-02-11T17:51:29.840Z,99361.69
2023-02-11T17:56:31.116Z,99366.84
2023-02-11T18:01:32.532Z,99364.16
2023-02-11T18:06:33.893Z,99377.44
2023-02-11T18:11:35.162Z,99360.13
2023-02-11T18:16:38.846Z,99357.59
2023-02-11T18:21:40.186Z,99367.88
2023-02-11T18:26:41.706Z,99367.03
2023-02-11T18:31:49.288Z,99355.72
2023-02-11T18:36:50.631Z,99354.06
2023-02-11T18:41:54.559Z,99371.53
2023-02-11T18:46:55.824Z,99361.13
2023-02-11T18:51:58.792Z,99370.50
2023-02-11T18:57:00.102Z,99366.22
2023-02-11T19:02:01.378Z,99367.84
2023-02-11T19:07:04.258Z,99373.88
2023-02-11T19:12:07.046Z,99372.16
2023-02-11T19:17:08.502Z,99366.19
2023-02-11T19:22:10.784Z,99376.47
2023-02-11T19:27:12.126Z,99383.34
2023-02-11T19:32:13.439Z,99387.59
2023-02-11T19:37:14.842Z,99388.41
2023-02-11T19:42:16.080Z,99390.84
2023-02-11T19:47:17.839Z,99388.38
2023-02-11T19:52:19.071Z,99385.84
2023-02-11T19:57:20.284Z,99380.66
2023-02-11T20:02:21.605Z,99380.66
2023-02-11T20:07:22.855Z,99373.75
2023-02-11T20:12:24.061Z,99370.28
2023-02-11T20:17:25.323Z,99370.28
2023-02-11T20:22:26.605Z,99373.59
2023-02-11T20:27:32.212Z,99377.81
2023-02-11T20:32:37.964Z,99388.06
2023-02-11T20:37:40.655Z,99402.63
2023-02-11T20:42:43.504Z,99410.53
2023-02-11T20:47:44.773Z,99406.34
2023-02-11T20:52:46.096Z,99413.19
2023-02-11T20:57:47.365Z,99419.22
2023-02-11T21:02:49.460Z,99430.41
2023-02-11T21:07:50.760Z,99431.38
2023-02-11T21:12:52.000Z,99421.91
2023-02-11T21:17:53.232Z,99425.22
2023-02-11T21:22:54.480Z,99431.25
2023-02-11T21:27:55.696Z,99438.22
2023-02-11T21:32:56.947Z,99454.47
2023-02-11T21:37:58.157Z,99460.53
2023-02-11T21:42:59.392Z,99480.28
2023-02-11T21:48:00.627Z,99474.41
2023-02-11T21:53:01.893Z,99487.28
2023-02-11T21:58:03.138Z,99494.25
2023-02-11T22:03:04.436Z,99497.66
2023-02-11T22:08:05.664Z,99499.50
2023-02-11T22:13:06.894Z,99494.25
2023-02-11T22:18:08.231Z,99483.22
2023-02-11T22:23:09.452Z,99486.63
2023-02-11T22:28:10.697Z,99483.19
2023-02-11T22:33:11.987Z,99476.34
2023-02-11T22:38:13.214Z,99470.28
2023-02-11T22:43:14.435Z,99478.75
2023-02-11T22:48:15.766Z,99476.16
2023-02-11T22:53:17.025Z,99477.88
2023-02-11T22:58:18.858Z,99481.38
2023-02-11T23:03:20.213Z,99476.25
2023-02-11T23:08:21.430Z,99483.19
2023-02-11T23:13:22.673Z,99496.94
2023-02-11T23:18:23.885Z,99493.41
2023-02-11T23:23:25.162Z,99502.94
2023-02-11T23:28:27.594Z,99505.56
2023-02-11T23:33:28.830Z,99504.69
2023-02-11T23:38:30.106Z,99499.53
2023-02-11T23:43:31.432Z,99496.94
2023-02-11T23:48:32.835Z,99487.28
2023-02-11T23:53:34.137Z,99503.47
2023-02-11T23:58:35.699Z,99513.16
